sensor_id;sensor_type;location;lat;lon;timestamp;pressure;altitude;pressure_sealevel;temperature;humidity
77092;BME280;66032;48.252;11.638;2023-02-28T00:01:25;96501.84;;;-2.95;74.70
77092;BME280;66032;48.252;11.638;2023-02-28T00:03:53;96496.84;;;-2.99;74.96
77092;BME280;66032;48.252;11.638;2023-02-28T00:06:20;96503.91;;;-3.03;75.13
77092;BME280;66032;48.252;11.638;2023-02-28T00:08:47;96495.34;;;-3.05;75.44
77092;BME280;66032;48.252;11.638;2023-02-28T00:11:15;96505.81;;;-3.08;75.62
77092;BME280;66032;48.252;11.638;2023-02-28T00:13:43;96496.50;;;-3.12;75.57
77092;BME280;66032;48.252;11.638;2023-02-28T00:16:14;96504.28;;;-3.12;75.62
77092;BME280;66032;48.252;11.638;2023-02-28T00:18:42;96498.38;;;-3.16;75.79
77092;BME280;66032;48.252;11.638;2023-02-28T00:21:09;96494.97;;;-3.18;76.12
77092;BME280;66032;48.252;11.638;2023-02-28T00:23:36;96495.13;;;-3.21;76.16
77092;BME280;66032;48.252;11.638;2023-02-28T00:26:03;96493.50;;;-3.23;76.35
77092;BME280;66032;48.252;11.638;2023-02-28T00:28:30;96495.28;;;-3.25;76.41
77092;BME280;66032;48.252;11.638;2023-02-28T00:30:58;96485.91;;;-3.28;76.52
77092;BME280;66032;48.252;11.638;2023-02-28T00:33:28;96494.69;;;-3.32;76.59
77092;BME280;66032;48.252;11.638;2023-02-28T00:36:05;96487.81;;;-3.33;76.60
77092;BME280;66032;48.252;11.638;2023-02-28T00:38:35;96488.72;;;-3.34;76.55
77092;BME280;66032;48.252;11.638;2023-02-28T00:41:02;96489.66;;;-3.35;76.61
77092;BME280;66032;48.252;11.638;2023-02-28T00:43:32;96483.63;;;-3.35;76.56
77092;BME280;66032;48.252;11.638;2023-02-28T00:45:59;96479.41;;;-3.38;76.65
77092;BME280;66032;48.252;11.638;2023-02-28T00:48:27;96486.28;;;-3.37;76.64
77092;BME280;66032;48.252;11.638;2023-02-28T00:50:54;96492.41;;;-3.39;76.53
77092;BME280;66032;48.252;11.638;2023-02-28T00:53:21;96486.38;;;-3.40;76.79
77092;BME280;66032;48.252;11.638;2023-02-28T00:55:49;96477.91;;;-3.43;76.89
77092;BME280;66032;48.252;11.638;2023-02-28T00:58:16;96490.06;;;-3.46;76.95
77092;BME280;66032;48.252;11.638;2023-02-28T01:00:43;96488.44;;;-3.48;77.13
77092;BME280;66032;48.252;11.638;2023-02-28T01:03:16;96484.19;;;-3.51;77.14
77092;BME280;66032;48.252;11.638;2023-02-28T01:05:43;96480.75;;;-3.51;77.38
77092;BME280;66032;48.252;11.638;2023-02-28T01:08:10;96494.69;;;-3.54;77.46
77092;BME280;66032;48.252;11.638;2023-02-28T01:10:37;96484.34;;;-3.54;77.26
77092;BME280;66032;48.252;11.638;2023-02-28T01:13:06;96483.50;;;-3.54;77.32
77092;BME280;66032;48.252;11.638;2023-02-28T01:15:36;96477.47;;;-3.55;77.27
77092;BME280;66032;48.252;11.638;2023-02-28T01:18:04;96480.09;;;-3.56;77.37
77092;BME280;66032;48.252;11.638;2023-02-28T01:20:31;96483.59;;;-3.57;77.52
77092;BME280;66032;48.252;11.638;2023-02-28T01:22:58;96471.59;;;-3.60;77.74
77092;BME280;66032;48.252;11.638;2023-02-28T01:25:26;96478.59;;;-3.62;77.77
77092;BME280;66032;48.252;11.638;2023-02-28T01:27:53;96470.84;;;-3.62;77.77
77092;BME280;66032;48.252;11.638;2023-02-28T01:30:20;96469.25;;;-3.66;77.95
77092;BME280;66032;48.252;11.638;2023-02-28T01:32:47;96463.28;;;-3.68;78.25
77092;BME280;66032;48.252;11.638;2023-02-28T01:35:14;96467.69;;;-3.70;78.23
77092;BME280;66032;48.252;11.638;2023-02-28T01:37:43;96471.25;;;-3.72;78.36
77092;BME280;66032;48.252;11.638;2023-02-28T01:40:10;96463.47;;;-3.72;78.55
77092;BME280;66032;48.252;11.638;2023-02-28T01:42:37;96464.41;;;-3.75;78.61
77092;BME280;66032;48.252;11.638;2023-02-28T01:47:32;96456.00;;;-3.80;78.77
77092;BME280;66032;48.252;11.638;2023-02-28T01:50:02;96456.00;;;-3.80;78.84
77092;BME280;66032;48.252;11.638;2023-02-28T01:52:30;96459.53;;;-3.83;79.00
77092;BME280;66032;48.252;11.638;2023-02-28T01:54:59;96456.09;;;-3.83;78.98
77092;BME280;66032;48.252;11.638;2023-02-28T01:57:29;96452.66;;;-3.84;79.18
77092;BME280;66032;48.252;11.638;2023-02-28T02:00:08;96460.53;;;-3.85;79.22
77092;BME280;66032;48.252;11.638;2023-02-28T02:02:38;96454.56;;;-3.87;79.33
77092;BME280;66032;48.252;11.638;2023-02-28T02:05:09;96455.44;;;-3.88;79.37
77092;BME280;66032;48.252;11.638;2023-02-28T02:07:41;96461.47;;;-3.88;79.47
77092;BME280;66032;48.252;11.638;2023-02-28T02:18:06;96451.34;;;-3.94;80.20
77092;BME280;66032;48.252;11.638;2023-02-28T02:20:46;96454.94;;;-3.98;80.32
77092;BME280;66032;48.252;11.638;2023-02-28T02:28:56;96444.78;;;-4.02;80.71
77092;BME280;66032;48.252;11.638;2023-02-28T02:31:28;96453.38;;;-4.02;80.77
77092;BME280;66032;48.252;11.638;2023-02-28T02:39:29;96453.31;;;-4.00;80.92
77092;BME280;66032;48.252;11.638;2023-02-28T02:41:59;96452.47;;;-4.01;80.73
77092;BME280;66032;48.252;11.638;2023-02-28T02:44:56;96444.59;;;-3.98;80.83
77092;BME280;66032;48.252;11.638;2023-02-28T02:47:23;96442.00;;;-3.98;80.85
77092;BME280;66032;48.252;11.638;2023-02-28T02:49:52;96432.50;;;-3.97;80.92
77092;BME280;66032;48.252;11.638;2023-02-28T02:52:24;96440.22;;;-3.96;80.78
77092;BME280;66032;48.252;11.638;2023-02-28T02:54:55;96443.69;;;-3.97;80.81
77092;BME280;66032;48.252;11.638;2023-02-28T02:57:32;96436.78;;;-3.96;80.99
77092;BME280;66032;48.252;11.638;2023-02-28T03:00:02;96440.22;;;-3.96;81.06
77092;BME280;66032;48.252;11.638;2023-02-28T03:02:31;96444.53;;;-3.96;81.11
77092;BME280;66032;48.252;11.638;2023-02-28T03:05:02;96439.38;;;-3.96;81.23
77092;BME280;66032;48.252;11.638;2023-02-28T03:07:30;96442.00;;;-3.98;81.58
77092;BME280;66032;48.252;11.638;2023-02-28T03:09:57;96436.72;;;-3.95;81.45
77092;BME280;66032;48.252;11.638;2023-02-28T03:12:27;96434.97;;;-3.94;81.50
77092;BME280;66032;48.252;11.638;2023-02-28T03:15:06;96442.59;;;-3.91;81.62
77092;BME280;66032;48.252;11.638;2023-02-28T03:17:39;96439.91;;;-3.88;81.62
77092;BME280;66032;48.252;11.638;2023-02-28T03:25:11;96440.56;;;-3.83;81.69
77092;BME280;66032;48.252;11.638;2023-02-28T03:27:59;96438.81;;;-3.83;81.63
77092;BME280;66032;48.252;11.638;2023-02-28T03:35:26;96445.81;;;-3.85;81.89
77092;BME280;66032;48.252;11.638;2023-02-28T03:37:59;96442.41;;;-3.85;81.94
77092;BME280;66032;48.252;11.638;2023-02-28T03:40:30;96439.66;;;-3.82;81.91
77092;BME280;66032;48.252;11.638;2023-02-28T03:42:59;96443.94;;;-3.81;82.02
77092;BME280;66032;48.252;11.638;2023-02-28T03:45:30;96443.91;;;-3.79;82.00
77092;BME280;66032;48.252;11.638;2023-02-28T03:48:19;96446.34;;;-3.76;81.85
77092;BME280;66032;48.252;11.638;2023-02-28T03:50:49;96448.78;;;-3.72;81.83
77092;BME280;66032;48.252;11.638;2023-02-28T03:55:50;96447.38;;;-3.59;81.46
77092;BME280;66032;48.252;11.638;2023-02-28T04:01:09;96449.50;;;-3.47;81.04
77092;BME280;66032;48.252;11.638;2023-02-28T04:03:38;96449.31;;;-3.42;80.97
77092;BME280;66032;48.252;11.638;2023-02-28T04:06:06;96456.00;;;-3.36;80.89
77092;BME280;66032;48.252;11.638;2023-02-28T04:08:34;96448.88;;;-3.31;81.04
77092;BME280;66032;48.252;11.638;2023-02-28T04:11:03;96450.38;;;-3.26;80.82
77092;BME280;66032;48.252;11.638;2023-02-28T04:13:31;96457.94;;;-3.20;80.65
77092;BME280;66032;48.252;11.638;2023-02-28T04:15:58;96458.56;;;-3.15;80.30
77092;BME280;66032;48.252;11.638;2023-02-28T04:18:25;96459.94;;;-3.06;80.09
77092;BME280;66032;48.252;11.638;2023-02-28T04:20:52;96460.69;;;-3.02;79.79
77092;BME280;66032;48.252;11.638;2023-02-28T04:23:19;96463.00;;;-2.96;79.49
77092;BME280;66032;48.252;11.638;2023-02-28T04:25:46;96462.81;;;-2.92;79.37
77092;BME280;66032;48.252;11.638;2023-02-28T04:28:13;96470.41;;;-2.87;78.94
77092;BME280;66032;48.252;11.638;2023-02-28T04:30:40;96473.69;;;-2.84;78.89
77092;BME280;66032;48.252;11.638;2023-02-28T04:33:07;96467.50;;;-2.80;78.96
77092;BME280;66032;48.252;11.638;2023-02-28T04:35:34;96469.03;;;-2.76;78.44
77092;BME280;66032;48.252;11.638;2023-02-28T04:38:01;96468.13;;;-2.75;78.05
77092;BME280;66032;48.252;11.638;2023-02-28T04:40:28;96462.84;;;-2.72;78.54
77092;BME280;66032;48.252;11.638;2023-02-28T04:42:55;96472.25;;;-2.69;78.23
77092;BME280;66032;48.252;11.638;2023-02-28T04:45:22;96463.47;;;-2.67;78.24
77092;BME280;66032;48.252;11.638;2023-02-28T04:47:49;96481.50;;;-2.63;78.23
77092;BME280;66032;48.252;11.638;2023-02-28T04:50:16;96480.59;;;-2.62;78.07
77092;BME280;66032;48.252;11.638;2023-02-28T04:52:43;96487.34;;;-2.58;78.02
77092;BME280;66032;48.252;11.638;2023-02-28T04:55:10;96476.06;;;-2.57;77.92
77092;BME280;66032;48.252;11.638;2023-02-28T04:57:37;96477.75;;;-2.56;77.71
77092;BME280;66032;48.252;11.638;2023-02-28T05:00:04;96481.97;;;-2.54;77.58
77092;BME280;66032;48.252;11.638;2023-02-28T05:02:34;96471.53;;;-2.52;77.38
77092;BME280;66032;48.252;11.638;2023-02-28T05:05:02;96476.63;;;-2.51;77.49
77092;BME280;66032;48.252;11.638;2023-02-28T05:07:29;96486.09;;;-2.50;77.55
77092;BME280;66032;48.252;11.638;2023-02-28T05:09:56;96487.16;;;-2.54;77.06
77092;BME280;66032;48.252;11.638;2023-02-28T05:12:23;96490.59;;;-2.53;76.76
77092;BME280;66032;48.252;11.638;2023-02-28T05:14:50;96495.91;;;-2.56;76.83
77092;BME280;66032;48.252;11.638;2023-02-28T05:17:17;96495.06;;;-2.57;76.73
77092;BME280;66032;48.252;11.638;2023-02-28T05:19:44;96498.50;;;-2.56;76.83
77092;BME280;66032;48.252;11.638;2023-02-28T05:22:14;96498.50;;;-2.56;76.89
77092;BME280;66032;48.252;11.638;2023-02-28T05:24:45;96500.25;;;-2.57;76.69
77092;BME280;66032;48.252;11.638;2023-02-28T05:27:12;96502.84;;;-2.57;76.82
77092;BME280;66032;48.252;11.638;2023-02-28T05:29:39;96495.13;;;-2.58;76.52
77092;BME280;66032;48.252;11.638;2023-02-28T05:32:12;96509.78;;;-2.57;76.81
77092;BME280;66032;48.252;11.638;2023-02-28T05:34:39;96508.88;;;-2.56;76.59
77092;BME280;66032;48.252;11.638;2023-02-28T05:37:06;96507.25;;;-2.59;76.31
77092;BME280;66032;48.252;11.638;2023-02-28T05:39:33;96500.50;;;-2.63;76.45
77092;BME280;66032;48.252;11.638;2023-02-28T05:42:00;96501.34;;;-2.62;76.58
77092;BME280;66032;48.252;11.638;2023-02-28T05:44:27;96494.47;;;-2.63;76.85
77092;BME280;66032;48.252;11.638;2023-02-28T05:46:54;96503.94;;;-2.62;76.90
77092;BME280;66032;48.252;11.638;2023-02-28T05:49:21;96497.91;;;-2.63;76.48
77092;BME280;66032;48.252;11.638;2023-02-28T05:51:48;96497.91;;;-2.63;76.30
77092;BME280;66032;48.252;11.638;2023-02-28T05:54:15;96502.16;;;-2.60;77.02
77092;BME280;66032;48.252;11.638;2023-02-28T05:56:42;96504.75;;;-2.60;76.46
77092;BME280;66032;48.252;11.638;2023-02-28T05:59:12;96508.25;;;-2.61;76.84
77092;BME280;66032;48.252;11.638;2023-02-28T06:01:40;96507.41;;;-2.62;76.57
77092;BME280;66032;48.252;11.638;2023-02-28T06:04:09;96503.06;;;-2.61;76.54
77092;BME280;66032;48.252;11.638;2023-02-28T06:06:51;96506.50;;;-2.61;76.84
77092;BME280;66032;48.252;11.638;2023-02-28T06:09:18;96508.09;;;-2.58;77.01
77092;BME280;66032;48.252;11.638;2023-02-28T06:11:45;96516.66;;;-2.56;76.61
77092;BME280;66032;48.252;11.638;2023-02-28T06:14:16;96508.88;;;-2.56;76.70
77092;BME280;66032;48.252;11.638;2023-02-28T06:16:43;96514.84;;;-2.54;76.32
77092;BME280;66032;48.252;11.638;2023-02-28T06:19:10;96520.09;;;-2.56;76.27
77092;BME280;66032;48.252;11.638;2023-02-28T06:21:37;96516.66;;;-2.56;76.51
77092;BME280;66032;48.252;11.638;2023-02-28T06:24:05;96523.53;;;-2.55;76.29
77092;BME280;66032;48.252;11.638;2023-02-28T06:26:32;96528.63;;;-2.52;76.13
77092;BME280;66032;48.252;11.638;2023-02-28T06:28:59;96538.91;;;-2.51;76.14
77092;BME280;66032;48.252;11.638;2023-02-28T06:31:27;96542.06;;;-2.43;76.23
77092;BME280;66032;48.252;11.638;2023-02-28T06:33:56;96535.03;;;-2.41;75.57
77092;BME280;66032;48.252;11.638;2023-02-28T06:36:23;96540.94;;;-2.37;75.70
77092;BME280;66032;48.252;11.638;2023-02-28T06:38:50;96533.78;;;-2.32;75.55
77092;BME280;66032;48.252;11.638;2023-02-28T06:41:22;96548.19;;;-2.25;75.63
77092;BME280;66032;48.252;11.638;2023-02-28T06:43:49;96542.75;;;-2.19;75.23
77092;BME280;66032;48.252;11.638;2023-02-28T06:46:16;96539.94;;;-2.14;74.96
77092;BME280;66032;48.252;11.638;2023-02-28T06:48:44;96544.19;;;-2.12;74.75
77092;BME280;66032;48.252;11.638;2023-02-28T06:51:12;96539.81;;;-2.11;74.65
77092;BME280;66032;48.252;11.638;2023-02-28T06:53:40;96542.88;;;-2.02;74.43
77092;BME280;66032;48.252;11.638;2023-02-28T06:56:08;96559.16;;;-1.98;74.35
77092;BME280;66032;48.252;11.638;2023-02-28T06:58:36;96554.84;;;-1.99;74.15
77092;BME280;66032;48.252;11.638;2023-02-28T07:01:04;96556.44;;;-1.95;74.22
77092;BME280;66032;48.252;11.638;2023-02-28T07:03:32;96561.47;;;-1.92;74.36
77092;BME280;66032;48.252;11.638;2023-02-28T07:06:00;96557.91;;;-1.89;74.41
77092;BME280;66032;48.252;11.638;2023-02-28T07:08:27;96555.47;;;-1.93;74.21
77092;BME280;66032;48.252;11.638;2023-02-28T07:10:55;96573.44;;;-1.88;73.66
77092;BME280;66032;48.252;11.638;2023-02-28T07:13:22;96568.09;;;-1.85;73.76
77092;BME280;66032;48.252;11.638;2023-02-28T07:16:24;96565.84;;;-1.93;74.09
77092;BME280;66032;48.252;11.638;2023-02-28T07:18:43;96573.09;;;-1.80;73.76
77092;BME280;66032;48.252;11.638;2023-02-28T07:21:10;96574.44;;;-1.72;73.59
77092;BME280;66032;48.252;11.638;2023-02-28T07:23:38;96563.53;;;-1.80;73.78
77092;BME280;66032;48.252;11.638;2023-02-28T07:26:06;96565.34;;;-1.82;74.62
77092;BME280;66032;48.252;11.638;2023-02-28T07:28:33;96571.78;;;-1.70;73.10
77092;BME280;66032;48.252;11.638;2023-02-28T07:31:06;96577.88;;;-1.71;73.56
77092;BME280;66032;48.252;11.638;2023-02-28T07:33:34;96570.09;;;-1.71;72.77
77092;BME280;66032;48.252;11.638;2023-02-28T07:36:05;96566.84;;;-1.58;72.87
77092;BME280;66032;48.252;11.638;2023-02-28T07:38:36;96572.50;;;-1.48;72.43
77092;BME280;66032;48.252;11.638;2023-02-28T07:41:04;96572.66;;;-1.51;72.27
77092;BME280;66032;48.252;11.638;2023-02-28T07:43:31;96577.28;;;-1.39;71.84
77092;BME280;66032;48.252;11.638;2023-02-28T07:46:05;96571.59;;;-1.28;71.57
77092;BME280;66032;48.252;11.638;2023-02-28T07:48:32;96587.69;;;-1.20;70.93
77092;BME280;66032;48.252;11.638;2023-02-28T07:50:59;96579.09;;;-1.41;71.39
77092;BME280;66032;48.252;11.638;2023-02-28T07:53:27;96586.22;;;-1.44;71.15
77092;BME280;66032;48.252;11.638;2023-02-28T07:55:58;96569.75;;;-1.45;71.27
77092;BME280;66032;48.252;11.638;2023-02-28T07:58:26;96578.97;;;-1.38;71.41
77092;BME280;66032;48.252;11.638;2023-02-28T08:00:53;96586.78;;;-1.38;70.93
77092;BME280;66032;48.252;11.638;2023-02-28T08:03:21;96575.16;;;-1.31;70.86
77092;BME280;66032;48.252;11.638;2023-02-28T08:05:48;96583.88;;;-1.32;71.02
77092;BME280;66032;48.252;11.638;2023-02-28T08:08:15;96584.88;;;-1.34;70.80
77092;BME280;66032;48.252;11.638;2023-02-28T08:10:43;96599.41;;;-1.49;71.71
77092;BME280;66032;48.252;11.638;2023-02-28T08:13:10;96590.50;;;-1.43;71.60
77092;BME280;66032;48.252;11.638;2023-02-28T08:15:37;96580.16;;;-1.45;71.28
77092;BME280;66032;48.252;11.638;2023-02-28T08:18:04;96595.47;;;-1.39;71.68
77092;BME280;66032;48.252;11.638;2023-02-28T08:20:31;96592.53;;;-1.31;71.70
77092;BME280;66032;48.252;11.638;2023-02-28T08:22:58;96582.06;;;-1.11;71.58
77092;BME280;66032;48.252;11.638;2023-02-28T08:25:25;96595.06;;;-0.92;70.36
77092;BME280;66032;48.252;11.638;2023-02-28T08:27:52;96586.47;;;-0.94;69.55
77092;BME280;66032;48.252;11.638;2023-02-28T08:30:19;96599.75;;;-1.00;69.51
77092;BME280;66032;48.252;11.638;2023-02-28T08:32:46;96600.53;;;-0.98;69.51
77092;BME280;66032;48.252;11.638;2023-02-28T08:35:13;96599.91;;;-0.85;69.26
77092;BME280;66032;48.252;11.638;2023-02-28T08:37:40;96600.88;;;-0.87;69.15
77092;BME280;66032;48.252;11.638;2023-02-28T08:40:08;96606.56;;;-0.79;68.35
77092;BME280;66032;48.252;11.638;2023-02-28T08:42:35;96603.59;;;-0.71;68.77
77092;BME280;66032;48.252;11.638;2023-02-28T08:45:02;96610.69;;;-0.75;68.57
77092;BME280;66032;48.252;11.638;2023-02-28T08:47:29;96601.53;;;-0.65;68.42
77092;BME280;66032;48.252;11.638;2023-02-28T08:49:56;96608.59;;;-0.50;68.36
77092;BME280;66032;48.252;11.638;2023-02-28T08:52:23;96606.00;;;-0.32;67.83
77092;BME280;66032;48.252;11.638;2023-02-28T08:54:50;96608.44;;;-0.64;68.56
77092;BME280;66032;48.252;11.638;2023-02-28T08:57:17;96603.66;;;-0.37;68.22
77092;BME280;66032;48.252;11.638;2023-02-28T08:59:44;96598.59;;;-0.23;67.83
77092;BME280;66032;48.252;11.638;2023-02-28T09:02:14;96600.28;;;-0.05;67.67
77092;BME280;66032;48.252;11.638;2023-02-28T09:04:41;96595.13;;;0.28;66.47
77092;BME280;66032;48.252;11.638;2023-02-28T09:07:08;96606.63;;;0.42;66.23
77092;BME280;66032;48.252;11.638;2023-02-28T09:09:35;96607.75;;;0.69;64.10
77092;BME280;66032;48.252;11.638;2023-02-28T09:12:02;96608.13;;;0.94;64.13
77092;BME280;66032;48.252;11.638;2023-02-28T09:14:29;96600.13;;;1.13;63.49
77092;BME280;66032;48.252;11.638;2023-02-28T09:16:56;96606.97;;;1.31;62.84
77092;BME280;66032;48.252;11.638;2023-02-28T09:19:24;96608.03;;;1.43;63.18
77092;BME280;66032;48.252;11.638;2023-02-28T09:21:51;96618.31;;;1.46;62.14
77092;BME280;66032;48.252;11.638;2023-02-28T09:24:19;96595.91;;;1.58;62.52
77092;BME280;66032;48.252;11.638;2023-02-28T09:26:47;96614.91;;;1.60;62.26
77092;BME280;66032;48.252;11.638;2023-02-28T09:29:29;96615.03;;;1.42;62.32
77092;BME280;66032;48.252;11.638;2023-02-28T09:31:56;96620.41;;;1.55;61.64
77092;BME280;66032;48.252;11.638;2023-02-28T09:34:26;96626.72;;;1.67;61.28
77092;BME280;66032;48.252;11.638;2023-02-28T09:36:53;96628.16;;;1.72;61.34
77092;BME280;66032;48.252;11.638;2023-02-28T09:39:21;96638.06;;;1.81;60.70
77092;BME280;66032;48.252;11.638;2023-02-28T09:41:50;96629.34;;;1.97;60.97
77092;BME280;66032;48.252;11.638;2023-02-28T09:44:20;96624.75;;;2.16;61.36
77092;BME280;66032;48.252;11.638;2023-02-28T09:46:51;96630.94;;;2.29;60.59
77092;BME280;66032;48.252;11.638;2023-02-28T09:49:22;96633.06;;;2.66;59.64
77092;BME280;66032;48.252;11.638;2023-02-28T09:54:24;96634.72;;;2.82;58.63
77092;BME280;66032;48.252;11.638;2023-02-28T09:59:55;96632.91;;;3.11;57.53
77092;BME280;66032;48.252;11.638;2023-02-28T10:05:14;96643.69;;;2.63;58.24
77092;BME280;66032;48.252;11.638;2023-02-28T10:10:53;96648.59;;;2.25;59.01
77092;BME280;66032;48.252;11.638;2023-02-28T10:15:50;96643.09;;;2.44;58.22
77092;BME280;66032;48.252;11.638;2023-02-28T10:18:27;96640.34;;;2.90;57.87
77092;BME280;66032;48.252;11.638;2023-02-28T10:20:57;96642.09;;;3.03;57.25
77092;BME280;66032;48.252;11.638;2023-02-28T10:23:34;96640.69;;;3.12;57.26
77092;BME280;66032;48.252;11.638;2023-02-28T10:26:09;96650.06;;;2.74;57.86
77092;BME280;66032;48.252;11.638;2023-02-28T10:28:38;96639.69;;;2.58;58.40
77092;BME280;66032;48.252;11.638;2023-02-28T10:31:06;96651.25;;;2.54;58.70
77092;BME280;66032;48.252;11.638;2023-02-28T10:33:36;96647.41;;;2.45;58.56
77092;BME280;66032;48.252;11.638;2023-02-28T10:36:03;96638.06;;;2.55;58.92
77092;BME280;66032;48.252;11.638;2023-02-28T10:38:34;96646.88;;;2.83;58.22
77092;BME280;66032;48.252;11.638;2023-02-28T10:43:32;96644.66;;;2.91;58.00
77092;BME280;66032;48.252;11.638;2023-02-28T10:51:15;96659.00;;;2.55;58.99
77092;BME280;66032;48.252;11.638;2023-02-28T10:56:26;96669.53;;;2.10;59.50
77092;BME280;66032;48.252;11.638;2023-02-28T10:58:57;96649.25;;;1.99;60.80
77092;BME280;66032;48.252;11.638;2023-02-28T11:01:41;96645.59;;;2.32;60.09
77092;BME280;66032;48.252;11.638;2023-02-28T11:04:16;96656.56;;;2.52;59.52
77092;BME280;66032;48.252;11.638;2023-02-28T11:06:44;96661.63;;;2.55;58.64
77092;BME280;66032;48.252;11.638;2023-02-28T11:09:26;96670.25;;;2.27;59.44
77092;BME280;66032;48.252;11.638;2023-02-28T11:11:55;96658.94;;;2.27;59.41
77092;BME280;66032;48.252;11.638;2023-02-28T11:14:30;96662.16;;;2.32;59.29
77092;BME280;66032;48.252;11.638;2023-02-28T11:16:59;96658.69;;;2.32;59.57
77092;BME280;66032;48.252;11.638;2023-02-28T11:19:29;96665.47;;;2.20;59.31
77092;BME280;66032;48.252;11.638;2023-02-28T11:22:02;96667.84;;;2.39;59.54
77092;BME280;66032;48.252;11.638;2023-02-28T11:24:33;96650.00;;;2.45;59.72
77092;BME280;66032;48.252;11.638;2023-02-28T11:27:01;96647.44;;;2.74;58.97
77092;BME280;66032;48.252;11.638;2023-02-28T11:29:30;96651.28;;;2.82;59.06
77092;BME280;66032;48.252;11.638;2023-02-28T11:32:05;96646.44;;;2.76;59.24
77092;BME280;66032;48.252;11.638;2023-02-28T11:34:37;96643.31;;;2.98;58.56
77092;BME280;66032;48.252;11.638;2023-02-28T11:37:05;96645.41;;;2.93;58.01
77092;BME280;66032;48.252;11.638;2023-02-28T11:39:33;96642.03;;;2.91;57.93
77092;BME280;66032;48.252;11.638;2023-02-28T11:47:44;96641.25;;;2.46;58.63
77092;BME280;66032;48.252;11.638;2023-02-28T11:52:56;96622.38;;;2.41;59.49
77092;BME280;66032;48.252;11.638;2023-02-28T11:58:12;96621.88;;;2.35;60.16
77092;BME280;66032;48.252;11.638;2023-02-28T12:19:04;96613.28;;;2.33;60.37
77092;BME280;66032;48.252;11.638;2023-02-28T12:21:51;96621.59;;;2.25;60.42
77092;BME280;66032;48.252;11.638;2023-02-28T12:27:02;96610.59;;;2.34;61.76
77092;BME280;66032;48.252;11.638;2023-02-28T12:29:33;96606.38;;;2.46;60.10
77092;BME280;66032;48.252;11.638;2023-02-28T12:34:46;96601.53;;;2.40;60.89
77092;BME280;66032;48.252;11.638;2023-02-28T12:37:19;96602.63;;;2.36;60.48
77092;BME280;66032;48.252;11.638;2023-02-28T12:39:48;96607.59;;;2.40;60.29
77092;BME280;66032;48.252;11.638;2023-02-28T12:42:19;96602.91;;;2.45;60.56
77092;BME280;66032;48.252;11.638;2023-02-28T12:44:52;96605.06;;;2.39;60.99
77092;BME280;66032;48.252;11.638;2023-02-28T12:47:21;96595.31;;;2.26;61.29
77092;BME280;66032;48.252;11.638;2023-02-28T12:50:09;96597.47;;;2.20;62.04
77092;BME280;66032;48.252;11.638;2023-02-28T12:53:25;96610.91;;;2.14;61.87
77092;BME280;66032;48.252;11.638;2023-02-28T12:58:13;96587.47;;;2.26;61.80
77092;BME280;66032;48.252;11.638;2023-02-28T13:01:33;96596.84;;;2.31;61.18
77092;BME280;66032;48.252;11.638;2023-02-28T13:08:46;96591.91;;;2.40;61.51
77092;BME280;66032;48.252;11.638;2023-02-28T13:11:38;96590.31;;;2.38;61.36
77092;BME280;66032;48.252;11.638;2023-02-28T13:14:16;96587.84;;;2.35;61.13
77092;BME280;66032;48.252;11.638;2023-02-28T13:16:55;96587.41;;;2.28;61.22
77092;BME280;66032;48.252;11.638;2023-02-28T13:19:24;96581.69;;;2.21;61.10
77092;BME280;66032;48.252;11.638;2023-02-28T13:21:52;96581.59;;;2.23;61.51
77092;BME280;66032;48.252;11.638;2023-02-28T13:29:35;96582.91;;;2.30;61.49
77092;BME280;66032;48.252;11.638;2023-02-28T13:34:47;96578.63;;;2.29;61.94
77092;BME280;66032;48.252;11.638;2023-02-28T13:37:41;96587.47;;;2.26;62.29
77092;BME280;66032;48.252;11.638;2023-02-28T13:42:48;96586.47;;;2.29;62.24
77092;BME280;66032;48.252;11.638;2023-02-28T13:45:21;96591.44;;;2.34;61.88
77092;BME280;66032;48.252;11.638;2023-02-28T13:58:09;96584.22;;;2.51;63.12
77092;BME280;66032;48.252;11.638;2023-02-28T14:06:16;96579.28;;;2.61;61.71
77092;BME280;66032;48.252;11.638;2023-02-28T14:11:53;96595.56;;;2.66;61.37
77092;BME280;66032;48.252;11.638;2023-02-28T14:17:14;96589.28;;;2.83;61.18
77092;BME280;66032;48.252;11.638;2023-02-28T14:19:46;96585.28;;;2.91;61.17
77092;BME280;66032;48.252;11.638;2023-02-28T14:22:21;96580.66;;;2.95;61.12
77092;BME280;66032;48.252;11.638;2023-02-28T14:30:14;96589.09;;;2.86;60.70
77092;BME280;66032;48.252;11.638;2023-02-28T14:38:30;96581.59;;;2.94;60.87
77092;BME280;66032;48.252;11.638;2023-02-28T14:40:58;96589.28;;;2.97;61.55
77092;BME280;66032;48.252;11.638;2023-02-28T14:43:27;96596.38;;;2.95;61.13
77092;BME280;66032;48.252;11.638;2023-02-28T14:46:01;96583.84;;;2.86;61.20
77092;BME280;66032;48.252;11.638;2023-02-28T14:48:29;96586.31;;;2.75;61.90
77092;BME280;66032;48.252;11.638;2023-02-28T14:50:57;96585.38;;;2.76;62.07
77092;BME280;66032;48.252;11.638;2023-02-28T14:53:26;96581.06;;;2.75;62.63
77092;BME280;66032;48.252;11.638;2023-02-28T14:55:54;96582.75;;;2.76;61.56
77092;BME280;66032;48.252;11.638;2023-02-28T14:58:26;96580.59;;;2.68;62.35
77092;BME280;66032;48.252;11.638;2023-02-28T15:00:55;96579.66;;;2.69;62.21
77092;BME280;66032;48.252;11.638;2023-02-28T15:03:24;96576.94;;;2.71;61.22
77092;BME280;66032;48.252;11.638;2023-02-28T15:05:53;96581.06;;;2.75;61.76
77092;BME280;66032;48.252;11.638;2023-02-28T15:08:20;96581.78;;;2.77;61.90
77092;BME280;66032;48.252;11.638;2023-02-28T15:13:40;96591.53;;;2.75;61.12
77092;BME280;66032;48.252;11.638;2023-02-28T15:16:51;96578.63;;;2.72;61.64
77092;BME280;66032;48.252;11.638;2023-02-28T15:18:59;96576.31;;;2.67;62.15
77092;BME280;66032;48.252;11.638;2023-02-28T15:21:32;96576.31;;;2.67;61.87
77092;BME280;66032;48.252;11.638;2023-02-28T15:26:29;96588.81;;;2.62;61.82
77092;BME280;66032;48.252;11.638;2023-02-28T15:28:59;96583.78;;;2.59;61.77
77092;BME280;66032;48.252;11.638;2023-02-28T15:31:28;96594.53;;;2.54;61.91
77092;BME280;66032;48.252;11.638;2023-02-28T15:34:16;96599.75;;;2.54;61.58
77092;BME280;66032;48.252;11.638;2023-02-28T15:36:44;96596.28;;;2.54;62.25
77092;BME280;66032;48.252;11.638;2023-02-28T15:39:18;96592.84;;;2.53;62.51